createdAt,value
2023-03-30T00:01:03.748Z,18.27
2023-03-30T00:03:33.275Z,18.40
2023-03-30T00:06:05.328Z,16.90
2023-03-30T00:08:33.321Z,16.80
2023-03-30T00:11:02.209Z,17.60
2023-03-30T00:13:30.165Z,16.80
2023-03-30T00:15:57.100Z,17.23
2023-03-30T00:18:24.818Z,19.17
2023-03-30T00:20:53.194Z,18.13
2023-03-30T00:23:20.572Z,19.23
2023-03-30T00:25:47.472Z,17.60
2023-03-30T00:28:14.388Z,17.23
2023-03-30T00:30:41.734Z,17.57
2023-03-30T00:33:08.857Z,16.20
2023-03-30T00:35:36.264Z,16.67
2023-03-30T00:38:05.754Z,16.70
2023-03-30T00:40:34.757Z,16.53
2023-03-30T00:43:04.402Z,16.03
2023-03-30T00:45:35.711Z,16.20
2023-03-30T00:48:07.888Z,16.93
2023-03-30T00:50:41.806Z,16.73
2023-03-30T00:53:16.251Z,15.10
2023-03-30T00:55:47.329Z,16.53
2023-03-30T00:58:17.817Z,16.97
2023-03-30T01:00:47.226Z,15.90
2023-03-30T01:03:22.701Z,17.20
2023-03-30T01:05:52.016Z,16.37
2023-03-30T01:08:23.907Z,16.27
2023-03-30T01:10:52.563Z,16.90
2023-03-30T01:13:20.668Z,15.17
2023-03-30T01:16:08.887Z,14.87
2023-03-30T01:18:54.701Z,15.57
2023-03-30T01:22:01.759Z,15.20
2023-03-30T01:25:20.879Z,15.73
2023-03-30T01:28:18.490Z,15.53
2023-03-30T01:31:14.860Z,14.27
2023-03-30T01:34:27.953Z,15.37
2023-03-30T01:37:32.345Z,15.13
2023-03-30T01:40:09.961Z,15.50
2023-03-30T01:42:47.565Z,14.37
2023-03-30T01:45:27.558Z,15.07
2023-03-30T01:48:02.390Z,14.00
2023-03-30T01:50:37.066Z,14.67
2023-03-30T01:53:14.935Z,14.37
2023-03-30T01:55:52.814Z,13.20
2023-03-30T01:58:27.797Z,13.43
2023-03-30T02:00:57.519Z,12.93
2023-03-30T02:03:28.878Z,13.40
2023-03-30T02:06:03.948Z,15.17
2023-03-30T02:08:34.544Z,13.73
2023-03-30T02:11:03.557Z,12.97
2023-03-30T02:13:32.926Z,12.97
2023-03-30T02:16:07.185Z,11.87
2023-03-30T02:18:35.356Z,11.70
2023-03-30T02:21:03.493Z,13.10
2023-03-30T02:23:37.086Z,11.90
2023-03-30T02:26:07.956Z,13.67
2023-03-30T02:28:34.896Z,12.97
2023-03-30T02:31:04.454Z,12.23
2023-03-30T02:33:48.410Z,12.83
2023-03-30T02:36:39.468Z,12.37
2023-03-30T02:39:24.180Z,11.80
2023-03-30T02:42:28.088Z,12.30
2023-03-30T02:45:19.592Z,13.90
2023-03-30T02:48:03.372Z,11.33
2023-03-30T02:50:44.178Z,11.53
2023-03-30T02:53:24.706Z,14.50
2023-03-30T02:56:07.925Z,10.53
2023-03-30T02:58:45.389Z,10.23
2023-03-30T03:01:19.208Z,11.37
2023-03-30T03:03:49.362Z,14.20
2023-03-30T03:06:18.345Z,9.90
2023-03-30T03:08:48.111Z,10.67
2023-03-30T03:11:15.656Z,10.90
2023-03-30T03:13:44.560Z,10.53
2023-03-30T03:16:13.994Z,12.40
2023-03-30T03:18:44.577Z,9.93
2023-03-30T03:21:13.861Z,12.23
2023-03-30T03:23:41.140Z,10.47
2023-03-30T03:26:09.586Z,11.40
2023-03-30T03:28:36.535Z,11.30
2023-03-30T03:31:06.468Z,10.17
2023-03-30T03:33:33.910Z,10.17
2023-03-30T03:36:01.103Z,10.03
2023-03-30T03:38:28.959Z,8.70
2023-03-30T03:40:59.047Z,9.40
2023-03-30T03:43:26.450Z,8.43
2023-03-30T03:45:53.723Z,9.73
2023-03-30T03:48:24.733Z,9.00
2023-03-30T03:50:53.396Z,8.70
2023-03-30T03:53:21.508Z,8.93
2023-03-30T03:55:48.474Z,10.57
2023-03-30T03:58:16.605Z,12.57
2023-03-30T04:00:43.979Z,7.60
2023-03-30T04:03:12.222Z,9.80
2023-03-30T04:05:41.808Z,8.60
2023-03-30T04:08:10.703Z,7.47
2023-03-30T04:10:38.849Z,9.80
2023-03-30T04:13:06.378Z,8.93
2023-03-30T04:15:34.042Z,6.33
2023-03-30T04:18:01.671Z,8.67
2023-03-30T04:20:29.953Z,5.63
2023-03-30T04:23:01.590Z,6.00
2023-03-30T04:25:29.267Z,5.93
2023-03-30T04:27:57.091Z,5.27
2023-03-30T04:30:24.546Z,7.07
2023-03-30T04:33:02.612Z,4.93
2023-03-30T04:35:31.283Z,6.17
2023-03-30T04:38:01.882Z,7.70
2023-03-30T04:40:29.331Z,7.17
2023-03-30T04:43:02.016Z,5.33
2023-03-30T04:45:29.561Z,4.60
2023-03-30T04:47:56.897Z,6.93
2023-03-30T04:50:23.842Z,8.77
2023-03-30T04:52:50.960Z,9.73
2023-03-30T04:55:19.741Z,6.07
2023-03-30T04:57:46.751Z,7.83
2023-03-30T05:00:15.089Z,5.00
2023-03-30T05:02:42.129Z,4.70
2023-03-30T05:05:09.553Z,6.23
2023-03-30T05:07:36.478Z,6.27
2023-03-30T05:10:03.871Z,4.37
2023-03-30T05:12:32.146Z,4.47
2023-03-30T05:14:59.124Z,6.57
2023-03-30T05:17:26.390Z,4.87
2023-03-30T05:19:54.557Z,5.77
2023-03-30T05:22:21.759Z,5.83
2023-03-30T05:24:48.638Z,5.60
2023-03-30T05:27:15.732Z,5.20
2023-03-30T05:29:44.344Z,6.57
2023-03-30T05:32:11.498Z,8.20
2023-03-30T05:34:38.389Z,5.43
2023-03-30T05:37:05.313Z,6.13
2023-03-30T05:39:32.569Z,6.97
2023-03-30T05:41:59.558Z,5.67
2023-03-30T05:44:26.468Z,6.77
2023-03-30T05:46:54.681Z,5.77
2023-03-30T05:49:21.563Z,7.60
2023-03-30T05:51:48.507Z,4.73
2023-03-30T05:54:15.520Z,8.13
2023-03-30T05:56:42.718Z,4.50
2023-03-30T05:59:10.651Z,4.47
2023-03-30T06:01:38.335Z,4.30
2023-03-30T06:04:07.836Z,4.57
2023-03-30T06:06:34.781Z,4.20
2023-03-30T06:09:02.812Z,6.30
2023-03-30T06:11:29.939Z,7.27
2023-03-30T06:13:56.891Z,4.73
2023-03-30T06:16:24.314Z,3.93
2023-03-30T06:18:52.083Z,5.53
2023-03-30T06:21:20.703Z,5.27
2023-03-30T06:23:48.976Z,7.20
2023-03-30T06:26:15.884Z,3.63
2023-03-30T06:28:43.419Z,5.70
2023-03-30T06:31:12.023Z,7.57
2023-03-30T06:33:41.533Z,3.27
2023-03-30T06:36:12.058Z,4.43
2023-03-30T06:38:41.175Z,4.33
2023-03-30T06:41:10.051Z,5.73
2023-03-30T06:43:37.622Z,3.97
2023-03-30T06:46:05.964Z,5.43
2023-03-30T06:48:33.056Z,5.17
2023-03-30T06:51:00.136Z,4.67
2023-03-30T06:53:28.202Z,3.07
2023-03-30T06:55:58.623Z,4.10
2023-03-30T06:58:27.501Z,6.13
2023-03-30T07:00:55.154Z,4.57
2023-03-30T07:03:22.690Z,8.87
2023-03-30T07:05:50.799Z,5.77
2023-03-30T07:08:18.710Z,6.57
2023-03-30T07:10:47.772Z,4.10
2023-03-30T07:13:17.527Z,3.30
2023-03-30T07:15:46.593Z,5.27
2023-03-30T07:18:14.789Z,6.93
2023-03-30T07:20:41.781Z,6.93
2023-03-30T07:23:10.419Z,8.70
2023-03-30T07:25:37.372Z,5.63
2023-03-30T07:28:06.246Z,5.50
2023-03-30T07:30:35.764Z,9.27
2023-03-30T07:33:03.589Z,4.17
2023-03-30T07:35:30.789Z,4.60
2023-03-30T07:38:03.465Z,3.93
2023-03-30T07:40:31.192Z,3.53
2023-03-30T07:42:58.914Z,6.00
2023-03-30T07:45:27.262Z,3.77
2023-03-30T07:47:55.875Z,3.90
2023-03-30T07:50:25.355Z,4.40
2023-03-30T07:52:52.720Z,6.07
2023-03-30T07:55:19.676Z,3.53
2023-03-30T07:57:50.027Z,4.27
2023-03-30T08:00:18.804Z,7.60
2023-03-30T08:02:45.950Z,3.57
2023-03-30T08:05:15.531Z,4.67
2023-03-30T08:07:43.059Z,3.87
2023-03-30T08:10:11.417Z,2.83
2023-03-30T08:12:38.342Z,3.27
2023-03-30T08:15:06.803Z,5.10
2023-03-30T08:17:33.909Z,6.47
2023-03-30T08:20:01.719Z,4.03
2023-03-30T08:22:30.289Z,5.63
2023-03-30T08:24:57.390Z,4.93
2023-03-30T08:27:24.425Z,4.50
2023-03-30T08:29:54.249Z,3.57
2023-03-30T08:32:21.366Z,4.40
2023-03-30T08:34:48.349Z,5.07
2023-03-30T08:37:15.338Z,3.50
2023-03-30T08:39:43.630Z,4.17
2023-03-30T08:42:39.379Z,5.57
2023-03-30T08:45:11.830Z,4.57
2023-03-30T08:47:43.994Z,2.60
2023-03-30T08:50:17.086Z,3.03
2023-03-30T08:52:44.240Z,3.83
2023-03-30T08:55:24.319Z,2.33
2023-03-30T08:57:57.441Z,3.37
2023-03-30T09:00:37.675Z,4.00
2023-03-30T09:03:17.630Z,3.97
2023-03-30T09:05:55.002Z,3.27
2023-03-30T09:08:29.110Z,3.30
2023-03-30T09:11:01.713Z,4.30
2023-03-30T09:13:33.706Z,3.93
2023-03-30T09:16:14.820Z,3.47
2023-03-30T09:18:44.968Z,3.30
2023-03-30T09:21:13.964Z,6.23
2023-03-30T09:23:41.332Z,4.10
2023-03-30T09:26:23.701Z,4.73
2023-03-30T09:29:01.017Z,5.20
2023-03-30T09:31:39.875Z,3.73
2023-03-30T09:34:25.593Z,4.87
2023-03-30T09:36:58.008Z,5.03
2023-03-30T09:39:27.562Z,4.17
2023-03-30T09:42:18.583Z,2.80
2023-03-30T09:44:51.763Z,3.97
2023-03-30T09:47:35.421Z,3.83
2023-03-30T09:50:07.883Z,3.57
2023-03-30T09:52:39.982Z,4.33
2023-03-30T09:55:30.251Z,4.10
2023-03-30T09:58:14.009Z,4.93
2023-03-30T10:00:41.136Z,4.80
2023-03-30T10:03:19.728Z,6.17
2023-03-30T10:06:03.806Z,4.93
2023-03-30T10:08:39.491Z,5.97
2023-03-30T10:11:10.563Z,3.60
2023-03-30T10:13:43.247Z,3.00
2023-03-30T10:16:24.664Z,4.20
2023-03-30T10:18:55.566Z,3.77
2023-03-30T10:21:27.225Z,5.43
2023-03-30T10:24:04.549Z,5.63
2023-03-30T10:26:32.008Z,5.03
2023-03-30T10:29:05.723Z,5.20
2023-03-30T10:31:36.961Z,4.47
2023-03-30T10:34:14.794Z,5.57
2023-03-30T10:36:42.149Z,5.70
2023-03-30T10:39:17.763Z,5.77
2023-03-30T10:41:48.732Z,3.90
2023-03-30T10:44:23.649Z,4.80
2023-03-30T10:47:03.265Z,7.97
2023-03-30T10:49:47.183Z,6.43
2023-03-30T10:52:26.425Z,3.97
2023-03-30T10:55:06.467Z,6.53
2023-03-30T10:57:50.876Z,5.10
2023-03-30T11:00:36.480Z,6.73
2023-03-30T11:03:12.750Z,5.80
2023-03-30T11:05:45.983Z,5.90
2023-03-30T11:08:21.009Z,7.90
2023-03-30T11:10:52.969Z,5.13
2023-03-30T11:13:26.074Z,5.10
2023-03-30T11:15:59.940Z,5.00
2023-03-30T11:18:36.289Z,9.37
2023-03-30T11:21:10.933Z,6.63
2023-03-30T11:23:49.302Z,6.30
2023-03-30T11:26:24.585Z,6.70
2023-03-30T11:29:02.737Z,5.90
2023-03-30T11:32:05.563Z,7.17
2023-03-30T11:34:48.165Z,6.73
2023-03-30T11:37:27.263Z,7.47
2023-03-30T11:40:08.363Z,12.07
2023-03-30T11:42:37.510Z,5.67
2023-03-30T11:45:18.482Z,6.60
2023-03-30T11:48:20.036Z,11.00
2023-03-30T11:51:09.064Z,9.23
2023-03-30T11:53:51.971Z,6.77
2023-03-30T11:56:34.582Z,8.03
2023-03-30T11:59:12.410Z,7.13
2023-03-30T12:02:07.020Z,8.80
2023-03-30T12:04:46.559Z,6.00
2023-03-30T12:07:30.560Z,7.93
2023-03-30T12:10:16.482Z,7.77
2023-03-30T12:12:47.154Z,7.13
2023-03-30T12:15:34.719Z,8.87
2023-03-30T12:18:19.501Z,7.07
2023-03-30T12:20:55.562Z,6.90
2023-03-30T12:23:40.639Z,6.17
2023-03-30T12:26:26.893Z,6.23
2023-03-30T12:32:03.611Z,11.90
2023-03-30T12:34:34.403Z,8.07
2023-03-30T12:37:09.921Z,9.87
2023-03-30T12:39:49.240Z,7.07
2023-03-30T12:42:26.961Z,7.03
2023-03-30T12:45:23.784Z,7.77
2023-03-30T12:48:16.788Z,6.90
2023-03-30T12:51:04.516Z,7.33
2023-03-30T12:54:03.370Z,8.63
2023-03-30T12:56:38.008Z,4.77
2023-03-30T12:59:54.773Z,5.87
2023-03-30T13:02:55.114Z,10.80
2023-03-30T13:05:30.340Z,6.60
2023-03-30T13:08:04.482Z,6.80
2023-03-30T13:10:40.072Z,5.00
2023-03-30T13:13:21.961Z,7.77
2023-03-30T13:15:52.872Z,5.47
2023-03-30T13:18:41.387Z,7.33
2023-03-30T13:21:22.865Z,5.97
2023-03-30T13:24:28.359Z,6.37
2023-03-30T13:27:25.667Z,6.20
2023-03-30T13:29:56.749Z,8.33
2023-03-30T13:33:01.637Z,5.83
2023-03-30T13:35:38.915Z,5.10
2023-03-30T13:38:45.756Z,6.00
2023-03-30T13:41:38.274Z,6.40
2023-03-30T13:44:27.760Z,4.87
2023-03-30T13:47:12.384Z,4.83
2023-03-30T13:49:55.158Z,4.20
2023-03-30T13:52:30.629Z,5.80
2023-03-30T13:54:58.543Z,5.47
2023-03-30T13:57:33.804Z,6.93
2023-03-30T14:00:21.245Z,5.70
2023-03-30T14:02:49.349Z,5.83
2023-03-30T14:05:21.682Z,7.53
2023-03-30T14:07:48.997Z,6.63
2023-03-30T14:10:20.387Z,6.37
2023-03-30T14:12:53.704Z,7.73
2023-03-30T14:15:33.919Z,4.80
2023-03-30T14:18:04.659Z,9.43
2023-03-30T14:20:48.319Z,6.80
2023-03-30T14:23:22.639Z,5.23
2023-03-30T14:25:54.344Z,7.03
2023-03-30T14:28:22.354Z,4.13
2023-03-30T14:30:53.711Z,8.13
2023-03-30T14:33:24.094Z,7.97
2023-03-30T14:35:56.401Z,5.03
2023-03-30T14:38:27.300Z,3.47
2023-03-30T14:40:55.713Z,7.73
2023-03-30T14:43:27.023Z,5.57
2023-03-30T14:45:59.574Z,4.53
2023-03-30T14:48:32.789Z,6.30
2023-03-30T14:51:02.625Z,7.53
2023-03-30T14:53:30.961Z,4.30
2023-03-30T14:56:01.341Z,6.03
2023-03-30T14:58:32.554Z,7.83
2023-03-30T15:01:09.627Z,8.90
2023-03-30T15:03:38.336Z,7.83
2023-03-30T15:06:07.897Z,5.30
2023-03-30T15:08:39.310Z,7.50
2023-03-30T15:11:12.675Z,8.97
2023-03-30T15:13:46.570Z,9.17
2023-03-30T15:16:20.858Z,7.93
2023-03-30T15:18:49.850Z,11.23
2023-03-30T15:21:19.501Z,7.53
2023-03-30T15:23:49.949Z,7.50
2023-03-30T15:26:18.456Z,8.40
2023-03-30T15:28:51.098Z,10.93
2023-03-30T15:31:20.931Z,8.07
2023-03-30T15:33:53.198Z,6.83
2023-03-30T15:36:23.458Z,7.73
2023-03-30T15:38:53.199Z,10.00
2023-03-30T15:41:24.609Z,8.90
2023-03-30T15:43:58.147Z,6.80
2023-03-30T15:46:30.016Z,9.40
2023-03-30T15:48:58.308Z,8.97
2023-03-30T15:51:32.987Z,7.00
2023-03-30T15:54:12.924Z,8.17
2023-03-30T15:56:48.202Z,7.60
2023-03-30T15:59:19.566Z,11.30
2023-03-30T16:01:54.778Z,7.83
2023-03-30T16:04:24.411Z,14.90
2023-03-30T16:06:52.684Z,6.30
2023-03-30T16:09:19.773Z,10.47
2023-03-30T16:11:47.190Z,10.17
2023-03-30T16:14:20.059Z,6.93
2023-03-30T16:16:48.945Z,9.77
2023-03-30T16:19:20.358Z,9.23
2023-03-30T16:21:47.548Z,9.80
2023-03-30T16:24:14.798Z,8.47
2023-03-30T16:26:42.233Z,11.10
2023-03-30T16:29:19.980Z,10.23
2023-03-30T16:31:47.088Z,8.30
2023-03-30T16:34:15.590Z,10.87
2023-03-30T16:36:42.722Z,9.47
2023-03-30T16:39:17.885Z,8.90
2023-03-30T16:41:45.584Z,12.50
2023-03-30T16:44:12.551Z,11.27
2023-03-30T16:46:42.035Z,11.13
2023-03-30T16:49:14.098Z,11.23
2023-03-30T16:51:43.561Z,9.57
2023-03-30T16:54:19.783Z,10.87
2023-03-30T16:56:54.640Z,9.90
2023-03-30T16:59:24.234Z,12.50
2023-03-30T17:01:51.794Z,11.50
2023-03-30T17:04:19.514Z,10.60
2023-03-30T17:06:49.096Z,10.10
2023-03-30T17:09:19.232Z,9.50
2023-03-30T17:11:48.488Z,8.07
2023-03-30T17:14:16.562Z,13.03
2023-03-30T17:16:44.002Z,12.07
2023-03-30T17:19:13.650Z,13.07
2023-03-30T17:21:43.350Z,8.43
2023-03-30T17:24:12.563Z,8.63
2023-03-30T17:26:40.254Z,8.13
2023-03-30T17:29:07.292Z,9.50
2023-03-30T17:31:34.442Z,10.27
2023-03-30T17:34:01.516Z,7.13
2023-03-30T17:36:30.942Z,9.97
2023-03-30T17:38:59.477Z,9.50
2023-03-30T17:41:27.944Z,11.50
2023-03-30T17:43:55.080Z,13.50
2023-03-30T17:46:22.138Z,10.30
2023-03-30T17:48:51.438Z,9.53
2023-03-30T17:51:18.702Z,11.67
2023-03-30T17:53:46.035Z,9.43
2023-03-30T17:56:13.577Z,9.80
2023-03-30T17:58:41.915Z,12.50
2023-03-30T18:01:12.184Z,15.93
2023-03-30T18:03:39.731Z,16.10
2023-03-30T18:06:07.966Z,11.00
2023-03-30T18:08:35.993Z,13.77
2023-03-30T18:11:04.630Z,10.53
2023-03-30T18:13:32.215Z,14.97
2023-03-30T18:16:02.887Z,11.77
2023-03-30T18:18:31.396Z,8.67
2023-03-30T18:21:02.655Z,15.73
2023-03-30T18:23:31.487Z,11.10
2023-03-30T18:25:58.472Z,11.13
2023-03-30T18:28:27.430Z,10.23
2023-03-30T18:31:00.672Z,11.77
2023-03-30T18:33:29.222Z,12.10
2023-03-30T18:35:56.931Z,11.10
2023-03-30T18:38:25.387Z,13.00
2023-03-30T18:40:57.383Z,7.93
2023-03-30T18:43:26.163Z,12.60
2023-03-30T18:45:54.332Z,13.07
2023-03-30T18:48:21.791Z,9.53
2023-03-30T18:50:52.169Z,14.47
2023-03-30T18:53:21.569Z,10.17
2023-03-30T18:55:51.377Z,9.40
2023-03-30T18:58:21.261Z,8.37
2023-03-30T19:00:49.740Z,12.20
2023-03-30T19:03:17.664Z,12.80
2023-03-30T19:05:45.948Z,11.83
2023-03-30T19:08:17.807Z,12.93
2023-03-30T19:10:49.261Z,10.73
2023-03-30T19:13:18.566Z,14.37
2023-03-30T19:15:47.590Z,12.33
2023-03-30T19:18:15.661Z,12.03
2023-03-30T19:20:42.753Z,12.50
2023-03-30T19:23:13.228Z,12.53
2023-03-30T19:25:42.711Z,16.37
2023-03-30T19:28:10.203Z,14.30
2023-03-30T19:30:39.624Z,16.63
2023-03-30T19:33:10.993Z,10.93
2023-03-30T19:35:40.808Z,14.73
2023-03-30T19:38:08.097Z,10.90
2023-03-30T19:40:36.506Z,11.93
2023-03-30T19:43:05.179Z,12.50
2023-03-30T19:45:32.619Z,12.60
2023-03-30T19:47:59.901Z,12.67
2023-03-30T19:50:29.491Z,12.53
2023-03-30T19:52:57.965Z,15.87
2023-03-30T19:55:25.668Z,12.83
2023-03-30T19:57:52.710Z,14.37
2023-03-30T20:00:21.400Z,14.27
2023-03-30T20:02:51.472Z,18.90
2023-03-30T20:05:21.720Z,15.13
2023-03-30T20:07:50.459Z,14.30
2023-03-30T20:10:21.788Z,13.53
2023-03-30T20:12:50.321Z,15.67
2023-03-30T20:15:18.495Z,13.53
2023-03-30T20:17:46.951Z,17.77
2023-03-30T20:20:16.957Z,13.90
2023-03-30T20:22:44.828Z,17.47
2023-03-30T20:25:14.228Z,14.13
2023-03-30T20:27:41.798Z,16.40
2023-03-30T20:30:11.557Z,12.03
2023-03-30T20:32:39.657Z,11.80
2023-03-30T20:35:09.253Z,13.87
2023-03-30T20:37:36.116Z,16.07
2023-03-30T20:40:09.618Z,13.20
2023-03-30T20:42:39.753Z,12.73
2023-03-30T20:45:08.781Z,10.23
2023-03-30T20:47:35.714Z,16.73
2023-03-30T20:50:06.283Z,12.17
2023-03-30T20:52:34.710Z,13.13
2023-03-30T20:55:01.730Z,15.53
2023-03-30T20:57:28.650Z,10.27
2023-03-30T20:59:55.852Z,9.57
2023-03-30T21:02:22.750Z,8.80
2023-03-30T21:04:50.279Z,10.60
2023-03-30T21:07:17.827Z,9.13
2023-03-30T21:09:47.143Z,11.00
2023-03-30T21:12:14.063Z,13.03
2023-03-30T21:14:41.120Z,17.83
2023-03-30T21:17:08.413Z,10.97
2023-03-30T21:19:36.649Z,16.17
2023-03-30T21:22:03.722Z,14.43
2023-03-30T21:24:31.082Z,11.67
2023-03-30T21:26:59.476Z,13.10
2023-03-30T21:29:26.365Z,16.00
2023-03-30T21:31:53.278Z,10.87
2023-03-30T21:34:22.062Z,11.73
2023-03-30T21:36:49.138Z,11.70
2023-03-30T21:39:16.213Z,13.90
2023-03-30T21:41:43.600Z,11.40
2023-03-30T21:44:11.914Z,11.13
2023-03-30T21:46:38.910Z,12.60
2023-03-30T21:49:05.819Z,12.50
2023-03-30T21:51:32.761Z,10.10
2023-03-30T21:53:59.719Z,11.37
2023-03-30T21:56:29.577Z,10.07
2023-03-30T21:58:56.956Z,9.27
2023-03-30T22:01:25.600Z,12.63
2023-03-30T22:03:53.549Z,10.17
2023-03-30T22:06:22.067Z,11.53
2023-03-30T22:08:49.517Z,9.93
2023-03-30T22:11:19.753Z,9.43
2023-03-30T22:13:48.324Z,10.60
2023-03-30T22:16:18.655Z,9.90
2023-03-30T22:18:47.346Z,9.83
2023-03-30T22:21:17.580Z,7.43
2023-03-30T22:23:45.171Z,10.10
2023-03-30T22:26:13.764Z,14.97
2023-03-30T22:28:41.109Z,15.07
2023-03-30T22:31:10.223Z,12.23
2023-03-30T22:33:37.486Z,9.17
2023-03-30T22:36:14.941Z,11.60
2023-03-30T22:38:42.414Z,9.37
2023-03-30T22:41:10.206Z,10.20
2023-03-30T22:43:37.729Z,7.73
2023-03-30T22:46:06.489Z,11.73
2023-03-30T22:48:35.493Z,6.93
2023-03-30T22:51:04.802Z,11.60
2023-03-30T22:53:32.432Z,10.53
2023-03-30T22:55:59.864Z,10.97
2023-03-30T22:58:27.844Z,9.17
2023-03-30T23:01:00.925Z,14.37
2023-03-30T23:03:28.068Z,13.13
2023-03-30T23:05:55.802Z,6.93
2023-03-30T23:08:24.315Z,12.50
2023-03-30T23:10:53.777Z,7.83
2023-03-30T23:13:20.734Z,8.63
2023-03-30T23:15:48.551Z,14.60
2023-03-30T23:18:15.903Z,10.83
2023-03-30T23:20:46.401Z,7.20
2023-03-30T23:23:14.062Z,11.17
2023-03-30T23:25:51.376Z,10.93
2023-03-30T23:28:19.030Z,13.97
2023-03-30T23:30:46.387Z,9.23
2023-03-30T23:33:13.930Z,8.87
2023-03-30T23:35:49.038Z,7.47
2023-03-30T23:38:16.954Z,6.87
2023-03-30T23:40:45.347Z,13.17
2023-03-30T23:43:12.256Z,12.33
2023-03-30T23:45:39.291Z,7.57
2023-03-30T23:48:07.177Z,6.03
2023-03-30T23:50:36.031Z,11.87
2023-03-30T23:53:02.934Z,11.63
2023-03-30T23:55:29.851Z,13.43
2023-03-30T23:57:58.065Z,12.67
